Time;durP1;ratioP1;P1;durP2;ratioP2;P2;SDS_P1;SDS_P2;PMS_P1;PMS_P2;Temp;Humidity;BMP_temperature;BMP_pressure;BME280_temperature;BME280_humidity;BME280_pressure;Samples;Min_cycle;Max_cycle;Signal;HPM_P1;HPM_P2
2023/03/11 00:01:46;;;;;;;0.60;0.60;;;6.80;99.90;;;;;;7375399;19;20365;-82
2023/03/11 00:04:12;;;;;;;0.80;0.80;;;6.70;99.90;;;;;;7388296;19;20328;-81
2023/03/11 00:06:40;;;;;;;0.80;0.80;;;6.90;99.90;;;;;;7345620;19;20306;-87
2023/03/11 00:09:11;;;;;;;1.13;0.63;;;6.70;99.90;;;;;;7402135;19;20847;-83
2023/03/11 00:11:40;;;;;;;0.70;0.70;;;6.70;99.90;;;;;;7350422;19;20301;-89
2023/03/11 00:14:13;;;;;;;0.60;0.60;;;6.70;99.90;;;;;;7347507;19;20332;-80
2023/03/11 00:16:38;;;;;;;0.63;0.63;;;6.60;99.90;;;;;;7404278;19;20331;-87
2023/03/11 00:19:05;;;;;;;0.60;0.60;;;6.50;99.90;;;;;;7404971;19;20368;-89
2023/03/11 00:21:31;;;;;;;0.60;0.60;;;6.50;99.90;;;;;;7400408;19;20344;-87
2023/03/11 00:23:59;;;;;;;0.60;0.60;;;6.40;99.90;;;;;;7394139;19;20364;-92
2023/03/11 00:26:26;;;;;;;0.70;0.70;;;6.20;99.90;;;;;;7401808;19;20332;-87
2023/03/11 00:28:51;;;;;;;0.60;0.60;;;6.20;99.90;;;;;;7398982;19;20320;-90
2023/03/11 00:31:17;;;;;;;0.60;0.60;;;6.10;99.90;;;;;;7399460;19;20345;-88
2023/03/11 00:33:43;;;;;;;0.60;0.60;;;6.10;99.90;;;;;;7394305;19;20317;-91
2023/03/11 00:36:35;;;;;;;0.70;0.70;;;6.10;99.90;;;;;;7400887;19;20313;-89
2023/03/11 00:39:03;;;;;;;0.60;0.60;;;6.00;99.90;;;;;;7397303;19;20332;-86
2023/03/11 00:41:28;;;;;;;0.70;0.70;;;6.00;99.90;;;;;;7390950;19;20320;-90
2023/03/11 00:43:54;;;;;;;0.70;0.70;;;5.90;99.90;;;;;;7400872;19;20351;-88
2023/03/11 00:46:20;;;;;;;0.80;0.80;;;5.80;99.90;;;;;;7398059;19;20328;-84
2023/03/11 00:48:45;;;;;;;0.63;0.63;;;5.60;99.90;;;;;;7397104;19;20817;-89
2023/03/11 00:51:13;;;;;;;0.70;0.70;;;5.40;99.90;;;;;;7400499;19;20424;-84
2023/03/11 00:53:39;;;;;;;0.60;0.60;;;5.30;99.90;;;;;;7399215;19;20312;-86
2023/03/11 00:56:11;;;;;;;0.60;0.60;;;5.10;99.90;;;;;;7402430;19;20325;-87
2023/03/11 00:58:39;;;;;;;0.60;0.60;;;5.00;99.90;;;;;;7385350;19;20328;-85
2023/03/11 01:01:09;;;;;;;0.60;0.60;;;4.90;99.90;;;;;;7396977;19;20329;-87
2023/03/11 01:03:38;;;;;;;0.60;0.60;;;4.50;99.90;;;;;;7377867;19;20313;-81
2023/03/11 01:06:04;;;;;;;0.68;0.68;;;4.40;99.90;;;;;;7406782;19;20329;-84
2023/03/11 01:08:30;;;;;;;0.70;0.70;;;4.30;99.90;;;;;;7404789;19;20718;-87
2023/03/11 01:10:56;;;;;;;0.60;0.60;;;4.20;99.90;;;;;;7403854;19;20737;-89
2023/03/11 01:13:22;;;;;;;0.70;0.70;;;4.20;99.90;;;;;;7401688;19;20341;-86
2023/03/11 01:15:48;;;;;;;0.60;0.60;;;3.90;99.90;;;;;;7405505;19;20355;-86
2023/03/11 01:18:14;;;;;;;0.60;0.60;;;3.80;99.90;;;;;;7406186;19;20321;-88
2023/03/11 01:20:41;;;;;;;1.20;0.70;;;3.70;99.90;;;;;;7411720;19;20412;-88
2023/03/11 01:23:07;;;;;;;0.70;0.70;;;3.60;99.90;;;;;;7411068;19;20309;-86
2023/03/11 01:25:32;;;;;;;0.80;0.80;;;3.60;99.90;;;;;;7408438;19;20319;-87
2023/03/11 01:28:42;;;;;;;0.80;0.80;;;3.50;99.90;;;;;;7409340;19;20320;-87
2023/03/11 01:31:35;;;;;;;0.80;0.80;;;3.50;99.90;;;;;;7382398;19;20314;-81
2023/03/11 01:34:01;;;;;;;0.75;0.75;;;3.20;99.90;;;;;;7402662;19;20320;-87
2023/03/11 01:36:27;;;;;;;0.80;0.80;;;3.20;99.90;;;;;;7407759;19;20866;-86
2023/03/11 01:38:53;;;;;;;0.70;0.70;;;3.10;99.90;;;;;;7411552;19;20336;-87
2023/03/11 01:41:18;;;;;;;0.77;0.77;;;3.10;99.90;;;;;;7405454;19;20344;-86
2023/03/11 01:43:53;;;;;;;0.70;0.70;;;3.00;99.90;;;;;;7406915;19;20305;-82
2023/03/11 01:46:38;;;;;;;0.90;0.90;;;3.00;99.90;;;;;;7402804;19;21503;-81
2023/03/11 01:49:05;;;;;;;0.80;0.80;;;2.80;99.90;;;;;;7406019;19;20315;-87
2023/03/11 01:51:40;;;;;;;0.80;0.80;;;2.90;99.90;;;;;;7408119;19;20297;-89
2023/03/11 01:54:26;;;;;;;1.00;1.00;;;2.80;99.90;;;;;;7402810;19;20340;-86
2023/03/11 01:56:53;;;;;;;0.80;0.80;;;2.70;99.90;;;;;;7301816;19;2004250;-83
2023/03/11 01:59:42;;;;;;;0.90;0.90;;;2.70;99.90;;;;;;7395358;19;20329;-85
2023/03/11 02:02:34;;;;;;;0.82;0.82;;;2.70;99.90;;;;;;7404849;19;20350;-86
2023/03/11 02:05:10;;;;;;;0.98;0.98;;;2.60;99.90;;;;;;7302798;19;2004323;-88
2023/03/11 02:07:41;;;;;;;1.00;1.00;;;2.60;99.90;;;;;;7376200;19;20365;-87
2023/03/11 02:10:12;;;;;;;1.92;1.50;;;2.60;99.90;;;;;;7413250;19;20378;-82
2023/03/11 02:12:48;;;;;;;1.47;1.30;;;2.60;99.90;;;;;;7303244;19;2004315;-88
2023/03/11 02:15:20;;;;;;;3.10;2.30;;;2.60;99.90;;;;;;7411347;19;20325;-87
2023/03/11 02:17:46;;;;;;;2.03;1.83;;;2.40;99.90;;;;;;7409958;19;20307;-92
2023/03/11 02:20:51;;;;;;;2.30;2.10;;;2.30;99.90;;;;;;7405484;19;20863;-79
2023/03/11 02:23:30;;;;;;;2.13;2.00;;;2.20;99.90;;;;;;7283965;19;2004397;-84
2023/03/11 02:26:25;;;;;;;2.30;2.10;;;1.90;99.90;;;;;;7395202;19;20341;-82
2023/03/11 02:28:52;;;;;;;2.90;2.43;;;2.10;99.90;;;;;;7277146;19;2004248;-83
2023/03/11 02:31:22;;;;;;;2.20;2.00;;;1.70;99.90;;;;;;7390216;19;20332;-81
2023/03/11 02:33:50;;;;;;;1.35;1.25;;;1.70;99.90;;;;;;7350731;19;20450;-83
2023/03/11 02:36:35;;;;;;;2.03;1.43;;;1.40;99.90;;;;;;7368939;19;20341;-82
2023/03/11 02:39:03;;;;;;;1.95;1.83;;;1.30;99.90;;;;;;7387493;19;20308;-81
2023/03/11 02:41:30;;;;;;;2.75;1.83;;;1.10;99.90;;;;;;7385230;19;20345;-84
2023/03/11 02:43:55;;;;;;;1.60;1.50;;;0.90;99.90;;;;;;7387496;19;20335;-89
2023/03/11 02:46:23;;;;;;;1.40;1.30;;;0.90;99.90;;;;;;7387616;19;20312;-81
2023/03/11 02:48:49;;;;;;;2.15;1.90;;;0.80;99.90;;;;;;7386878;19;20329;-82
2023/03/11 02:51:16;;;;;;;2.17;1.88;;;0.80;99.90;;;;;;7385779;19;20317;-79
2023/03/11 02:53:49;;;;;;;1.90;1.77;;;0.80;99.90;;;;;;7384348;19;20331;-79
2023/03/11 02:56:15;;;;;;;2.10;1.63;;;0.70;99.90;;;;;;7384531;19;20328;-85
2023/03/11 02:58:43;;;;;;;2.03;1.83;;;0.80;99.90;;;;;;7388791;19;20840;-80
2023/03/11 03:01:09;;;;;;;2.30;1.90;;;0.70;99.90;;;;;;7387363;19;20315;-84
2023/03/11 03:03:35;;;;;;;2.10;1.90;;;0.60;99.90;;;;;;7385275;19;20313;-83
2023/03/11 03:06:02;;;;;;;2.17;1.90;;;0.60;99.90;;;;;;7382530;19;20345;-82
2023/03/11 03:08:28;;;;;;;1.60;1.50;;;0.60;99.90;;;;;;7382392;19;20334;-84
2023/03/11 03:10:54;;;;;;;1.93;1.83;;;0.50;99.90;;;;;;7383615;19;20316;-81
2023/03/11 03:13:19;;;;;;;2.17;2.08;;;0.50;99.90;;;;;;7382697;19;20321;-81
2023/03/11 03:15:45;;;;;;;2.17;2.00;;;0.50;99.90;;;;;;7381208;19;20372;-82
2023/03/11 03:18:13;;;;;;;2.53;2.33;;;0.50;99.90;;;;;;7383968;19;20429;-83
2023/03/11 03:20:38;;;;;;;2.28;2.15;;;0.50;99.90;;;;;;7383702;19;20324;-86
2023/03/11 03:23:05;;;;;;;2.83;2.60;;;0.60;99.90;;;;;;7383669;19;20919;-83
2023/03/11 03:25:32;;;;;;;2.65;2.45;;;0.40;99.90;;;;;;7385576;19;20472;-81
2023/03/11 03:28:02;;;;;;;2.63;2.42;;;0.40;99.90;;;;;;7383250;19;20343;-81
2023/03/11 03:30:31;;;;;;;3.05;2.72;;;0.30;99.90;;;;;;7387245;19;20304;-85
2023/03/11 03:33:04;;;;;;;2.83;2.63;;;0.40;99.90;;;;;;7389517;19;20320;-86
2023/03/11 03:35:54;;;;;;;3.20;2.78;;;0.30;99.90;;;;;;7370660;19;20321;-80
2023/03/11 03:39:06;;;;;;;2.60;2.40;;;0.30;99.90;;;;;;7274465;19;2004325;-84
2023/03/11 03:42:42;;;;;;;5.35;4.30;;;0.40;99.90;;;;;;7345832;19;20304;-85
2023/03/11 03:45:18;;;;;;;2.50;2.30;;;0.40;99.90;;;;;;7293794;19;2004275;-82
2023/03/11 03:47:45;;;;;;;2.85;2.58;;;0.30;99.90;;;;;;7295346;19;2004355;-86
2023/03/11 03:50:11;;;;;;;3.70;3.30;;;0.40;99.90;;;;;;7398355;19;20824;-83
2023/03/11 03:52:39;;;;;;;3.90;3.10;;;0.30;99.90;;;;;;7396966;19;20311;-85
2023/03/11 03:55:06;;;;;;;2.53;2.33;;;0.40;99.90;;;;;;7397338;19;20361;-83
2023/03/11 03:57:32;;;;;;;3.03;2.38;;;0.40;99.90;;;;;;7398776;19;20316;-88
2023/03/11 03:59:58;;;;;;;2.40;2.20;;;0.30;99.90;;;;;;7390665;19;20356;-82
2023/03/11 04:02:23;;;;;;;1.80;1.70;;;0.30;99.90;;;;;;7388255;19;20770;-82
2023/03/11 04:04:50;;;;;;;1.70;1.60;;;0.20;99.90;;;;;;7395531;19;20313;-89
2023/03/11 04:07:16;;;;;;;5.07;3.17;;;0.30;99.90;;;;;;7398424;19;20305;-88
2023/03/11 04:09:42;;;;;;;2.33;1.80;;;0.30;99.90;;;;;;7400122;19;20958;-91
2023/03/11 04:12:14;;;;;;;2.08;1.88;;;0.30;99.90;;;;;;7401354;19;20443;-89
2023/03/11 04:14:40;;;;;;;1.60;1.50;;;0.30;99.90;;;;;;7397685;19;20345;-81
2023/03/11 04:17:07;;;;;;;1.40;1.30;;;0.30;99.90;;;;;;7393773;19;20309;-82
2023/03/11 04:19:32;;;;;;;1.20;1.20;;;0.30;99.90;;;;;;7395339;19;20313;-88
2023/03/11 04:21:58;;;;;;;1.17;1.07;;;0.30;99.90;;;;;;7390332;19;20347;-83
2023/03/11 04:24:26;;;;;;;1.00;1.00;;;0.30;99.90;;;;;;7391074;19;20337;-88
2023/03/11 04:26:52;;;;;;;0.90;0.90;;;0.30;99.90;;;;;;7396778;19;20364;-87
2023/03/11 04:29:18;;;;;;;1.10;1.10;;;0.30;99.90;;;;;;7395276;19;20325;-89
2023/03/11 04:31:48;;;;;;;1.10;1.10;;;0.30;99.90;;;;;;7394864;19;20317;-85
2023/03/11 04:34:14;;;;;;;1.00;1.00;;;0.30;99.90;;;;;;7400948;19;20424;-84
2023/03/11 04:36:41;;;;;;;0.80;0.80;;;0.30;99.90;;;;;;7402339;19;20412;-84
2023/03/11 04:39:09;;;;;;;1.17;1.07;;;0.30;99.90;;;;;;7401693;19;20674;-83
2023/03/11 04:41:40;;;;;;;1.05;1.05;;;0.30;99.90;;;;;;7404382;19;20329;-89
2023/03/11 04:44:06;;;;;;;0.90;0.90;;;0.30;99.90;;;;;;7399045;19;20337;-89
2023/03/11 04:46:32;;;;;;;1.00;1.00;;;0.30;99.90;;;;;;7407391;19;20342;-86
2023/03/11 04:49:02;;;;;;;1.10;1.10;;;0.30;99.90;;;;;;7408050;19;20324;-91
2023/03/11 04:51:29;;;;;;;1.50;1.40;;;0.30;99.90;;;;;;7407702;19;20321;-87
2023/03/11 04:53:55;;;;;;;1.27;1.27;;;0.30;99.90;;;;;;7412322;19;20667;-89
2023/03/11 04:56:21;;;;;;;1.00;1.00;;;0.30;99.90;;;;;;7414127;19;20321;-88
2023/03/11 04:58:48;;;;;;;1.30;1.20;;;0.30;99.90;;;;;;7412343;19;20380;-90
2023/03/11 05:01:14;;;;;;;1.50;1.40;;;0.30;99.90;;;;;;7414841;19;20366;-87
2023/03/11 05:03:40;;;;;;;1.38;1.27;;;0.30;99.90;;;;;;7412845;19;20316;-90
2023/03/11 05:06:07;;;;;;;1.30;1.20;;;0.30;99.90;;;;;;7412202;19;20316;-88
2023/03/11 05:08:33;;;;;;;1.00;1.00;;;0.30;99.90;;;;;;7410661;19;20328;-88
2023/03/11 05:10:58;;;;;;;1.50;1.40;;;0.30;99.90;;;;;;7409390;19;20312;-91
2023/03/11 05:13:24;;;;;;;1.40;1.30;;;0.30;99.90;;;;;;7408773;19;20329;-88
2023/03/11 05:15:51;;;;;;;1.30;1.20;;;0.30;99.90;;;;;;7388484;19;20368;-84
2023/03/11 05:18:18;;;;;;;1.17;1.17;;;0.30;99.90;;;;;;7379075;19;20383;-80
2023/03/11 05:20:47;;;;;;;0.90;0.90;;;0.30;99.90;;;;;;7394295;19;20346;-90
2023/03/11 05:23:14;;;;;;;1.00;1.00;;;0.30;99.90;;;;;;7406312;19;20348;-85
2023/03/11 05:25:40;;;;;;;1.10;1.10;;;0.30;99.90;;;;;;7397321;19;20354;-83
2023/03/11 05:28:06;;;;;;;1.40;1.30;;;0.30;99.90;;;;;;7390087;19;20759;-81
2023/03/11 05:30:35;;;;;;;1.00;1.00;;;0.30;99.90;;;;;;7384275;19;20803;-77
2023/03/11 05:33:02;;;;;;;1.10;1.10;;;0.30;99.90;;;;;;7379648;19;20347;-82
2023/03/11 05:35:28;;;;;;;1.40;1.30;;;0.30;99.90;;;;;;7390501;19;20308;-81
2023/03/11 05:37:54;;;;;;;1.55;1.45;;;0.30;99.90;;;;;;7385110;19;20333;-84
2023/03/11 05:40:21;;;;;;;1.50;1.40;;;0.30;99.90;;;;;;7388577;19;20313;-88
2023/03/11 05:42:47;;;;;;;1.27;1.20;;;0.30;99.90;;;;;;7392433;19;20315;-86
2023/03/11 05:45:14;;;;;;;1.38;1.30;;;0.30;99.90;;;;;;7392675;19;20313;-85
2023/03/11 05:47:41;;;;;;;1.33;1.23;;;0.30;99.90;;;;;;7390894;19;20387;-82
2023/03/11 05:50:10;;;;;;;1.25;1.17;;;0.30;99.90;;;;;;7388524;19;20327;-85
2023/03/11 05:52:36;;;;;;;1.77;1.60;;;0.30;99.90;;;;;;7379263;19;20319;-80
2023/03/11 05:55:01;;;;;;;1.60;1.50;;;0.30;99.90;;;;;;7380790;19;20693;-81
2023/03/11 05:57:30;;;;;;;1.52;1.42;;;0.50;99.90;;;;;;7378912;19;20801;-82
2023/03/11 05:59:56;;;;;;;1.50;1.40;;;0.30;99.90;;;;;;7381625;19;20309;-87
2023/03/11 06:02:23;;;;;;;1.50;1.40;;;0.30;99.90;;;;;;7381899;19;20313;-82
2023/03/11 06:04:49;;;;;;;1.38;1.35;;;0.30;99.90;;;;;;7380924;19;20364;-81
2023/03/11 06:07:15;;;;;;;1.40;1.30;;;0.40;99.90;;;;;;7383792;19;20312;-80
2023/03/11 06:09:43;;;;;;;1.52;1.42;;;0.30;99.90;;;;;;7384173;19;20664;-81
2023/03/11 06:12:12;;;;;;;1.50;1.40;;;0.40;99.90;;;;;;7385207;19;20316;-81
2023/03/11 06:14:58;;;;;;;1.63;1.52;;;0.40;99.90;;;;;;7383768;19;20667;-86
2023/03/11 06:17:24;;;;;;;1.90;1.80;;;0.30;99.90;;;;;;7384565;19;20349;-82
2023/03/11 06:19:51;;;;;;;1.50;1.40;;;0.30;99.90;;;;;;7383814;19;20341;-82
2023/03/11 06:22:16;;;;;;;1.60;1.50;;;0.30;99.90;;;;;;7383383;19;20843;-83
2023/03/11 06:24:43;;;;;;;1.48;1.38;;;0.30;99.90;;;;;;7383264;19;20452;-80
2023/03/11 06:27:10;;;;;;;1.40;1.30;;;0.40;99.90;;;;;;7382634;19;20301;-84
2023/03/11 06:29:35;;;;;;;1.40;1.30;;;0.40;99.90;;;;;;7382608;19;20857;-84
2023/03/11 06:32:02;;;;;;;1.50;1.40;;;0.40;99.90;;;;;;7381704;19;20341;-81
2023/03/11 06:34:28;;;;;;;1.58;1.48;;;0.40;99.90;;;;;;7381905;19;20313;-79
2023/03/11 06:36:53;;;;;;;1.40;1.30;;;0.40;99.90;;;;;;7381106;19;20344;-80
2023/03/11 06:39:20;;;;;;;1.50;1.40;;;0.40;99.90;;;;;;7380156;19;20401;-80
2023/03/11 06:41:48;;;;;;;1.50;1.40;;;0.50;99.90;;;;;;7381166;19;20304;-81
2023/03/11 06:44:13;;;;;;;1.50;1.40;;;0.50;99.90;;;;;;7357854;19;20340;-83
2023/03/11 06:46:40;;;;;;;1.30;1.20;;;0.50;99.90;;;;;;7383523;19;21215;-82
2023/03/11 06:49:06;;;;;;;1.50;1.40;;;0.50;99.90;;;;;;7379565;19;20312;-84
2023/03/11 06:51:32;;;;;;;1.60;1.50;;;0.50;99.90;;;;;;7379253;19;20777;-81
2023/03/11 06:53:57;;;;;;;1.52;1.42;;;0.50;99.90;;;;;;7379474;19;20320;-80
2023/03/11 06:56:24;;;;;;;1.50;1.40;;;0.50;99.90;;;;;;7379131;19;20855;-84
2023/03/11 06:58:55;;;;;;;2.33;1.52;;;0.50;99.90;;;;;;7380202;19;20424;-80
2023/03/11 07:01:23;;;;;;;1.63;1.50;;;0.60;99.90;;;;;;7379144;19;20320;-80
2023/03/11 07:03:49;;;;;;;1.77;1.67;;;0.60;99.90;;;;;;7376542;19;20883;-80
2023/03/11 07:06:20;;;;;;;1.65;1.55;;;0.50;99.90;;;;;;7378710;19;20349;-78
2023/03/11 07:08:47;;;;;;;1.73;1.63;;;0.60;99.90;;;;;;7377938;19;20745;-79
2023/03/11 07:11:14;;;;;;;1.52;1.42;;;0.50;99.90;;;;;;7377182;19;20340;-80
2023/03/11 07:13:40;;;;;;;1.50;1.40;;;0.60;99.90;;;;;;7374380;19;20345;-81
2023/03/11 07:16:08;;;;;;;1.53;1.43;;;0.70;99.90;;;;;;7378439;19;20328;-88
2023/03/11 07:18:34;;;;;;;1.55;1.45;;;0.60;99.90;;;;;;7378081;19;20357;-79
2023/03/11 07:21:04;;;;;;;1.60;1.45;;;0.60;99.90;;;;;;7378835;19;20390;-78
2023/03/11 07:23:29;;;;;;;1.77;1.67;;;0.70;99.90;;;;;;7372535;19;20349;-76
2023/03/11 07:25:55;;;;;;;1.60;1.50;;;0.70;99.90;;;;;;7375006;19;20372;-78
2023/03/11 07:28:22;;;;;;;1.45;1.35;;;0.80;99.90;;;;;;7375575;19;20343;-77
2023/03/11 07:30:48;;;;;;;1.63;1.53;;;0.60;99.90;;;;;;7377450;19;20344;-79
2023/03/11 07:33:14;;;;;;;1.70;1.60;;;0.60;99.90;;;;;;7372107;19;20884;-77
2023/03/11 07:35:39;;;;;;;1.63;1.53;;;0.60;99.90;;;;;;7376860;19;20304;-79
2023/03/11 07:38:05;;;;;;;1.70;1.60;;;0.60;99.90;;;;;;7373914;19;20324;-79
2023/03/11 07:40:30;;;;;;;2.00;1.90;;;0.60;99.90;;;;;;7383398;19;20338;-79
2023/03/11 07:42:56;;;;;;;1.70;1.55;;;0.70;99.90;;;;;;7377125;19;20690;-80
2023/03/11 07:45:22;;;;;;;1.67;1.58;;;0.70;99.90;;;;;;7378395;19;20338;-80
2023/03/11 07:47:48;;;;;;;1.73;1.63;;;0.70;99.90;;;;;;7377694;19;20341;-80
2023/03/11 07:50:13;;;;;;;1.80;1.70;;;0.70;99.90;;;;;;7376561;19;20304;-82
2023/03/11 07:52:39;;;;;;;1.67;1.57;;;0.80;99.90;;;;;;7378014;19;20546;-79
2023/03/11 07:55:05;;;;;;;1.93;1.83;;;0.80;99.90;;;;;;7374520;19;20317;-79
2023/03/11 07:57:30;;;;;;;1.95;1.85;;;0.80;99.90;;;;;;7377355;19;20372;-82
2023/03/11 07:59:56;;;;;;;1.60;1.50;;;0.80;99.90;;;;;;7377079;19;20344;-77
2023/03/11 08:02:22;;;;;;;1.80;1.70;;;0.80;99.90;;;;;;7375661;19;20331;-79
2023/03/11 08:04:47;;;;;;;2.33;1.93;;;0.80;99.90;;;;;;7374867;19;20362;-78
2023/03/11 08:07:13;;;;;;;2.00;1.90;;;0.80;99.90;;;;;;7376803;19;20331;-80
2023/03/11 08:09:38;;;;;;;2.00;1.70;;;0.80;99.90;;;;;;7375637;19;20308;-79
2023/03/11 08:12:05;;;;;;;1.83;1.73;;;0.90;99.90;;;;;;7376557;19;21191;-80
2023/03/11 08:14:30;;;;;;;3.10;2.80;;;0.80;99.90;;;;;;7374812;19;20340;-78
2023/03/11 08:16:56;;;;;;;2.97;2.47;;;0.90;99.90;;;;;;7374670;19;20416;-80
2023/03/11 08:19:21;;;;;;;2.95;2.50;;;0.90;99.90;;;;;;7374848;19;20325;-82
2023/03/11 08:21:47;;;;;;;2.30;2.10;;;0.80;99.90;;;;;;7374501;19;20352;-83
2023/03/11 08:24:13;;;;;;;2.23;2.03;;;0.90;99.90;;;;;;7375828;19;20374;-77
2023/03/11 08:26:38;;;;;;;2.55;2.10;;;0.80;99.90;;;;;;7375848;19;20327;-80
2023/03/11 08:29:04;;;;;;;2.43;2.23;;;0.80;99.90;;;;;;7384059;19;20300;-78
2023/03/11 08:31:31;;;;;;;2.35;2.15;;;0.80;99.90;;;;;;7382903;19;20327;-80
2023/03/11 08:33:58;;;;;;;2.50;2.30;;;0.70;99.90;;;;;;7378097;19;20357;-78
2023/03/11 08:36:24;;;;;;;1.85;1.73;;;0.60;99.90;;;;;;7381882;19;20352;-78
2023/03/11 08:38:49;;;;;;;2.13;1.93;;;0.50;99.90;;;;;;7382188;19;20423;-78
2023/03/11 08:41:15;;;;;;;2.45;2.25;;;0.30;99.90;;;;;;7380969;19;21119;-78
2023/03/11 08:43:41;;;;;;;2.00;1.80;;;0.40;99.90;;;;;;7381686;19;20401;-79
2023/03/11 08:46:07;;;;;;;2.40;2.20;;;0.40;99.90;;;;;;7381887;19;20313;-78
2023/03/11 08:48:33;;;;;;;2.90;2.10;;;0.40;99.90;;;;;;7381220;19;20328;-77
2023/03/11 08:50:59;;;;;;;3.80;2.65;;;0.30;99.90;;;;;;7382511;19;20356;-78
2023/03/11 08:53:25;;;;;;;2.80;2.58;;;0.30;99.90;;;;;;7378686;19;20328;-78
2023/03/11 08:55:50;;;;;;;2.55;2.33;;;0.30;99.90;;;;;;7381032;19;20361;-77
2023/03/11 08:58:18;;;;;;;4.73;2.80;;;0.30;99.90;;;;;;7379955;19;20408;-78
2023/03/11 09:00:43;;;;;;;3.23;2.50;;;0.30;99.90;;;;;;7381202;19;20408;-77
2023/03/11 09:03:09;;;;;;;3.00;2.80;;;0.40;99.90;;;;;;7380919;19;21087;-78
2023/03/11 09:05:35;;;;;;;2.88;2.40;;;0.60;99.90;;;;;;7380411;19;20340;-78
2023/03/11 09:08:02;;;;;;;2.80;2.60;;;0.70;99.90;;;;;;7381543;19;20349;-81
2023/03/11 09:10:27;;;;;;;3.10;2.80;;;0.70;99.90;;;;;;7381535;19;20317;-78
2023/03/11 09:12:53;;;;;;;2.90;2.60;;;0.70;99.90;;;;;;7380754;19;20369;-78
2023/03/11 09:15:19;;;;;;;3.07;2.63;;;0.90;99.90;;;;;;7380978;19;20924;-79
2023/03/11 09:17:44;;;;;;;4.05;3.33;;;0.80;99.90;;;;;;7381515;19;20365;-78
2023/03/11 09:20:11;;;;;;;4.43;3.00;;;0.80;99.90;;;;;;7382545;19;20332;-77
2023/03/11 09:22:37;;;;;;;3.33;3.03;;;0.80;99.90;;;;;;7377789;19;20363;-80
2023/03/11 09:25:03;;;;;;;3.07;2.77;;;0.90;99.90;;;;;;7379424;19;20357;-78
2023/03/11 09:27:29;;;;;;;3.20;2.90;;;0.80;99.90;;;;;;7379062;19;20392;-78
2023/03/11 09:29:55;;;;;;;3.90;3.33;;;0.90;99.90;;;;;;7378271;19;21193;-82
2023/03/11 09:32:23;;;;;;;3.80;3.03;;;1.00;99.90;;;;;;7378588;19;20354;-76
2023/03/11 09:34:48;;;;;;;3.40;3.10;;;1.10;99.90;;;;;;7378343;19;20729;-78
2023/03/11 09:37:14;;;;;;;3.50;3.10;;;1.00;99.90;;;;;;7378124;19;20326;-77
2023/03/11 09:39:39;;;;;;;4.27;3.20;;;1.00;99.90;;;;;;7377847;19;21267;-79
2023/03/11 09:42:31;;;;;;;5.30;3.20;;;0.90;99.90;;;;;;7377467;19;20316;-77
2023/03/11 09:45:02;;;;;;;3.63;3.28;;;1.00;99.90;;;;;;7273516;19;2004297;-79
2023/03/11 09:47:45;;;;;;;3.00;2.80;;;1.00;99.90;;;;;;7378324;19;20308;-77
2023/03/11 09:50:25;;;;;;;3.25;2.95;;;1.00;99.90;;;;;;7379126;19;20344;-78
2023/03/11 09:53:09;;;;;;;3.83;3.47;;;1.10;99.90;;;;;;7276207;19;2004612;-78
2023/03/11 09:55:40;;;;;;;4.57;3.20;;;1.10;99.90;;;;;;7376907;19;20683;-79
2023/03/11 09:58:47;;;;;;;2.72;2.38;;;1.10;99.90;;;;;;7379253;19;20362;-80
2023/03/11 10:01:18;;;;;;;3.33;3.00;;;1.10;99.90;;;;;;7173370;19;2004623;-79
2023/03/11 10:03:43;;;;;;;4.60;2.70;;;1.30;99.90;;;;;;7376729;19;20340;-79
2023/03/11 10:06:21;;;;;;;3.97;3.57;;;1.40;99.90;;;;;;7378090;19;20345;-77
2023/03/11 10:09:07;;;;;;;3.03;2.83;;;1.60;99.90;;;;;;7275064;19;2005029;-78
2023/03/11 10:11:43;;;;;;;5.32;3.25;;;1.70;99.90;;;;;;7380152;19;20320;-78
2023/03/11 10:14:32;;;;;;;3.03;2.70;;;1.60;99.90;;;;;;7378077;19;20300;-78
2023/03/11 10:17:34;;;;;;;3.73;3.13;;;1.80;99.90;;;;;;7273786;19;2016744;-79
2023/03/11 10:20:24;;;;;;;3.17;2.87;;;1.80;99.90;;;;;;7275693;19;2004591;-77
2023/03/11 10:23:15;;;;;;;2.70;2.50;;;2.00;99.90;;;;;;7273820;19;2004226;-78
2023/03/11 10:26:07;;;;;;;3.05;2.55;;;2.00;99.90;;;;;;7377370;19;20320;-79
2023/03/11 10:28:35;;;;;;;2.70;2.47;;;1.90;99.90;;;;;;7276311;19;2004239;-77
2023/03/11 10:31:22;;;;;;;3.90;2.93;;;2.00;99.90;;;;;;7377479;19;20391;-77
2023/03/11 10:34:09;;;;;;;2.72;2.53;;;2.00;99.90;;;;;;7271717;19;2004322;-76
2023/03/11 10:36:39;;;;;;;2.85;2.63;;;1.90;99.90;;;;;;7376311;19;20409;-78
2023/03/11 10:39:04;;;;;;;2.90;2.60;;;1.90;99.90;;;;;;7378738;19;20343;-79
2023/03/11 10:41:43;;;;;;;3.23;2.60;;;2.00;99.90;;;;;;7378081;19;20859;-77
2023/03/11 10:44:17;;;;;;;2.60;2.40;;;2.30;99.90;;;;;;7376333;19;20990;-79
2023/03/11 10:46:42;;;;;;;3.28;2.88;;;2.50;99.90;;;;;;7377725;19;20351;-79
2023/03/11 10:49:15;;;;;;;2.70;2.50;;;2.60;99.90;;;;;;7375511;19;20919;-82
2023/03/11 10:51:43;;;;;;;3.15;2.67;;;2.70;99.90;;;;;;7376351;19;20305;-77
2023/03/11 10:54:19;;;;;;;3.17;2.70;;;2.40;99.90;;;;;;7374900;19;20746;-78
2023/03/11 10:56:44;;;;;;;4.60;2.73;;;2.30;99.90;;;;;;7374992;19;20336;-78
2023/03/11 10:59:41;;;;;;;3.78;2.40;;;2.20;99.90;;;;;;7378468;19;21292;-78
2023/03/11 11:02:27;;;;;;;2.80;2.60;;;2.50;99.90;;;;;;7275113;19;2004374;-76
2023/03/11 11:05:19;;;;;;;3.10;2.80;;;2.40;99.90;;;;;;7271992;19;2004328;-78
2023/03/11 11:07:48;;;;;;;3.42;3.08;;;2.40;99.90;;;;;;7375067;19;20893;-78
2023/03/11 11:10:15;;;;;;;3.30;3.00;;;2.40;99.90;;;;;;7375911;19;20712;-79
2023/03/11 11:12:57;;;;;;;3.17;2.88;;;2.40;99.90;;;;;;7377103;19;20313;-78
2023/03/11 11:15:25;;;;;;;3.05;2.75;;;2.10;99.90;;;;;;7273354;19;2004464;-79
2023/03/11 11:17:54;;;;;;;2.97;2.72;;;2.10;99.90;;;;;;7375772;19;20352;-83
2023/03/11 11:20:20;;;;;;;3.20;2.90;;;2.00;99.90;;;;;;7376541;19;20324;-85
2023/03/11 11:22:56;;;;;;;3.13;2.83;;;2.00;99.90;;;;;;7376368;19;20364;-77
2023/03/11 11:25:36;;;;;;;3.30;3.00;;;1.80;99.90;;;;;;7374090;19;20328;-78
2023/03/11 11:28:17;;;;;;;3.40;3.10;;;2.00;99.90;;;;;;7375814;19;20349;-79
2023/03/11 11:31:00;;;;;;;3.88;3.10;;;2.20;99.90;;;;;;7376640;19;20373;-79
2023/03/11 11:33:38;;;;;;;2.88;2.63;;;2.10;99.90;;;;;;7271459;19;2004524;-78
2023/03/11 11:36:11;;;;;;;3.55;3.05;;;2.10;99.90;;;;;;7378244;19;20365;-79
2023/03/11 11:38:37;;;;;;;3.08;2.78;;;2.00;99.90;;;;;;7378011;19;20326;-82
2023/03/11 11:41:03;;;;;;;3.88;3.25;;;2.20;99.90;;;;;;7379015;19;20341;-78
2023/03/11 11:43:48;;;;;;;2.80;2.60;;;2.40;99.90;;;;;;7373636;19;20435;-80
2023/03/11 11:46:26;;;;;;;3.15;2.85;;;2.30;99.90;;;;;;7379549;19;20317;-79
2023/03/11 11:48:55;;;;;;;3.42;3.13;;;2.20;99.90;;;;;;7275604;19;2004525;-85
2023/03/11 11:51:32;;;;;;;4.88;3.60;;;2.00;99.90;;;;;;7382292;19;20391;-79
2023/03/11 11:54:14;;;;;;;4.05;3.53;;;1.70;99.90;;;;;;7374376;19;20348;-83
2023/03/11 11:56:40;;;;;;;3.90;3.30;;;1.70;99.90;;;;;;7375768;19;20347;-78
2023/03/11 11:59:17;;;;;;;4.22;3.30;;;1.50;99.90;;;;;;7377539;19;20437;-80
2023/03/11 12:02:20;;;;;;;3.70;3.38;;;2.00;99.90;;;;;;7372328;19;21081;-80
2023/03/11 12:04:54;;;;;;;3.72;3.35;;;2.50;99.90;;;;;;7177486;19;2004323;-80
2023/03/11 12:07:28;;;;;;;3.35;3.05;;;2.50;99.90;;;;;;7382778;19;20324;-81
2023/03/11 12:10:10;;;;;;;3.90;3.50;;;2.80;99.90;;;;;;7383377;19;20361;-79
2023/03/11 12:12:41;;;;;;;3.67;3.38;;;2.80;99.90;;;;;;7379814;19;20308;-80
2023/03/11 12:15:25;;;;;;;4.55;3.65;;;2.80;99.90;;;;;;7380087;19;20320;-80
2023/03/11 12:17:53;;;;;;;4.07;3.20;;;3.40;99.90;;;;;;7277755;19;2019177;-80
2023/03/11 12:20:38;;;;;;;3.50;3.20;;;3.30;99.90;;;;;;7381321;19;20420;-79
2023/03/11 12:23:27;;;;;;;4.40;3.28;;;3.30;99.90;;;;;;7380656;19;20443;-78
2023/03/11 12:26:15;;;;;;;3.75;3.17;;;3.20;99.90;;;;;;7276073;19;2005752;-82
2023/03/11 12:28:47;;;;;;;3.55;3.25;;;3.40;99.90;;;;;;7382860;19;20388;-78
2023/03/11 12:31:12;;;;;;;3.47;3.17;;;3.10;99.90;;;;;;7380390;19;20304;-81
2023/03/11 12:33:55;;;;;;;3.95;3.03;;;3.30;99.90;;;;;;7377545;19;20360;-75
2023/03/11 12:36:28;;;;;;;3.20;2.90;;;3.30;99.90;;;;;;7278631;19;2005905;-79
2023/03/11 12:38:54;;;;;;;3.97;3.53;;;3.50;99.90;;;;;;7379079;19;20353;-78
2023/03/11 12:41:26;;;;;;;3.67;3.13;;;3.50;99.90;;;;;;7380912;19;20325;-80
2023/03/11 12:43:52;;;;;;;3.50;3.20;;;3.20;99.90;;;;;;7377064;19;20351;-79
2023/03/11 12:46:17;;;;;;;4.13;3.38;;;2.80;99.90;;;;;;7381024;19;20355;-78
2023/03/11 12:48:44;;;;;;;3.90;3.50;;;2.90;99.90;;;;;;7380457;19;20886;-80
2023/03/11 12:51:25;;;;;;;3.70;3.40;;;2.80;99.90;;;;;;7384542;19;20323;-81
2023/03/11 12:53:50;;;;;;;3.75;3.40;;;3.00;99.90;;;;;;7278729;19;2004510;-82
2023/03/11 12:56:50;;;;;;;4.90;3.75;;;3.10;99.90;;;;;;7380869;19;20320;-80
2023/03/11 12:59:51;;;;;;;3.85;3.47;;;2.80;99.90;;;;;;7379996;19;20320;-80
2023/03/11 13:02:42;;;;;;;5.17;4.13;;;2.80;99.90;;;;;;7174721;19;2004567;-79
2023/03/11 13:05:46;;;;;;;4.15;3.60;;;2.80;99.90;;;;;;7376731;19;20328;-80
2023/03/11 13:08:15;;;;;;;4.27;3.87;;;2.70;99.90;;;;;;7278722;19;2004337;-85
2023/03/11 13:10:50;;;;;;;3.97;3.58;;;2.40;99.90;;;;;;7381887;19;20324;-80
2023/03/11 13:13:40;;;;;;;3.95;3.60;;;2.50;99.90;;;;;;7379292;19;20324;-82
2023/03/11 13:16:12;;;;;;;3.95;3.58;;;2.40;99.90;;;;;;7280625;19;2004256;-80